sensor_id;sensor_type;location;lat;lon;timestamp;P1;durP1;ratioP1;P2;durP2;ratioP2
77870;SDS011;67067;46.850;7.578;2024-01-15T00:01:25;25.10;;;11.85;;
77870;SDS011;67067;46.850;7.578;2024-01-15T00:02:27;23.65;;;12.00;;
77870;SDS011;67067;46.850;7.578;2024-01-15T00:03:31;23.42;;;11.05;;
77870;SDS011;67067;46.850;7.578;2024-01-15T00:04:39;24.83;;;12.07;;
77870;SDS011;67067;46.850;7.578;2024-01-15T00:05:42;29.95;;;13.68;;
77870;SDS011;67067;46.850;7.578;2024-01-15T00:07:50;26.73;;;12.13;;
77870;SDS011;67067;46.850;7.578;2024-01-15T00:08:52;25.85;;;13.30;;
77870;SDS011;67067;46.850;7.578;2024-01-15T00:10:55;24.58;;;12.45;;
77870;SDS011;67067;46.850;7.578;2024-01-15T00:12:58;26.58;;;12.68;;
77870;SDS011;67067;46.850;7.578;2024-01-15T00:15:04;24.95;;;11.95;;
77870;SDS011;67067;46.850;7.578;2024-01-15T00:16:06;22.33;;;10.88;;
77870;SDS011;67067;46.850;7.578;2024-01-15T00:18:10;25.50;;;11.90;;
77870;SDS011;67067;46.850;7.578;2024-01-15T00:19:12;24.42;;;12.23;;
77870;SDS011;67067;46.850;7.578;2024-01-15T00:20:14;22.50;;;11.10;;
77870;SDS011;67067;46.850;7.578;2024-01-15T00:21:16;21.83;;;11.07;;
77870;SDS011;67067;46.850;7.578;2024-01-15T00:23:20;23.42;;;12.18;;
77870;SDS011;67067;46.850;7.578;2024-01-15T00:24:22;27.13;;;12.93;;
77870;SDS011;67067;46.850;7.578;2024-01-15T00:25:28;28.50;;;13.20;;
77870;SDS011;67067;46.850;7.578;2024-01-15T00:26:30;24.20;;;12.75;;
77870;SDS011;67067;46.850;7.578;2024-01-15T00:28:33;24.93;;;12.13;;
77870;SDS011;67067;46.850;7.578;2024-01-15T00:29:37;24.02;;;12.40;;
77870;SDS011;67067;46.850;7.578;2024-01-15T00:30:39;27.48;;;13.70;;
77870;SDS011;67067;46.850;7.578;2024-01-15T00:32:42;25.77;;;13.07;;
77870;SDS011;67067;46.850;7.578;2024-01-15T00:33:44;29.50;;;14.15;;
77870;SDS011;67067;46.850;7.578;2024-01-15T00:34:47;30.33;;;15.93;;
77870;SDS011;67067;46.850;7.578;2024-01-15T00:36:50;29.38;;;13.48;;
77870;SDS011;67067;46.850;7.578;2024-01-15T00:38:54;28.97;;;14.40;;
77870;SDS011;67067;46.850;7.578;2024-01-15T00:39:58;28.00;;;14.80;;
77870;SDS011;67067;46.850;7.578;2024-01-15T00:42:04;26.30;;;13.20;;
77870;SDS011;67067;46.850;7.578;2024-01-15T00:43:06;29.00;;;14.40;;
77870;SDS011;67067;46.850;7.578;2024-01-15T00:44:09;29.95;;;15.43;;
77870;SDS011;67067;46.850;7.578;2024-01-15T00:46:12;27.42;;;13.60;;
77870;SDS011;67067;46.850;7.578;2024-01-15T00:48:15;25.43;;;12.67;;
77870;SDS011;67067;46.850;7.578;2024-01-15T00:49:17;29.00;;;13.85;;
77870;SDS011;67067;46.850;7.578;2024-01-15T00:50:19;29.70;;;14.07;;
77870;SDS011;67067;46.850;7.578;2024-01-15T00:52:23;25.73;;;12.82;;
77870;SDS011;67067;46.850;7.578;2024-01-15T00:54:27;28.83;;;13.20;;
77870;SDS011;67067;46.850;7.578;2024-01-15T00:55:28;28.15;;;14.43;;
77870;SDS011;67067;46.850;7.578;2024-01-15T00:56:35;30.50;;;15.48;;
77870;SDS011;67067;46.850;7.578;2024-01-15T00:57:38;29.90;;;15.05;;
77870;SDS011;67067;46.850;7.578;2024-01-15T00:58:40;26.10;;;13.77;;
77870;SDS011;67067;46.850;7.578;2024-01-15T01:00:45;27.17;;;13.65;;
77870;SDS011;67067;46.850;7.578;2024-01-15T01:01:47;26.20;;;13.70;;
77870;SDS011;67067;46.850;7.578;2024-01-15T01:02:51;26.27;;;12.93;;
77870;SDS011;67067;46.850;7.578;2024-01-15T01:04:55;27.25;;;13.52;;
77870;SDS011;67067;46.850;7.578;2024-01-15T01:05:59;26.13;;;12.85;;
77870;SDS011;67067;46.850;7.578;2024-01-15T01:08:03;26.67;;;12.88;;
77870;SDS011;67067;46.850;7.578;2024-01-15T01:09:05;25.92;;;12.50;;
77870;SDS011;67067;46.850;7.578;2024-01-15T01:10:07;25.60;;;13.10;;
77870;SDS011;67067;46.850;7.578;2024-01-15T01:11:12;25.70;;;13.23;;
77870;SDS011;67067;46.850;7.578;2024-01-15T01:12:14;27.33;;;13.18;;
77870;SDS011;67067;46.850;7.578;2024-01-15T01:14:18;26.17;;;13.50;;
77870;SDS011;67067;46.850;7.578;2024-01-15T01:16:21;27.52;;;13.43;;
77870;SDS011;67067;46.850;7.578;2024-01-15T01:17:23;26.65;;;13.90;;
77870;SDS011;67067;46.850;7.578;2024-01-15T01:18:29;30.27;;;14.70;;
77870;SDS011;67067;46.850;7.578;2024-01-15T01:19:31;27.88;;;14.23;;
77870;SDS011;67067;46.850;7.578;2024-01-15T01:20:33;27.75;;;15.00;;
77870;SDS011;67067;46.850;7.578;2024-01-15T01:21:37;26.90;;;14.38;;
77870;SDS011;67067;46.850;7.578;2024-01-15T01:23:40;26.10;;;13.93;;
77870;SDS011;67067;46.850;7.578;2024-01-15T01:25:44;28.88;;;14.35;;
77870;SDS011;67067;46.850;7.578;2024-01-15T01:26:46;29.58;;;15.15;;
77870;SDS011;67067;46.850;7.578;2024-01-15T01:28:50;27.65;;;13.60;;
77870;SDS011;67067;46.850;7.578;2024-01-15T01:29:52;27.33;;;13.77;;
77870;SDS011;67067;46.850;7.578;2024-01-15T01:30:54;26.85;;;15.18;;
77870;SDS011;67067;46.850;7.578;2024-01-15T01:31:56;29.13;;;15.32;;
77870;SDS011;67067;46.850;7.578;2024-01-15T01:32:58;29.45;;;14.82;;
77870;SDS011;67067;46.850;7.578;2024-01-15T01:34:02;28.50;;;14.43;;
77870;SDS011;67067;46.850;7.578;2024-01-15T01:35:06;27.65;;;14.38;;
77870;SDS011;67067;46.850;7.578;2024-01-15T01:36:10;26.98;;;13.68;;
77870;SDS011;67067;46.850;7.578;2024-01-15T01:38:17;28.75;;;14.40;;
77870;SDS011;67067;46.850;7.578;2024-01-15T01:40:22;25.27;;;11.50;;
77870;SDS011;67067;46.850;7.578;2024-01-15T01:42:26;8.37;;;4.23;;
77870;SDS011;67067;46.850;7.578;2024-01-15T01:44:29;11.95;;;5.78;;
77870;SDS011;67067;46.850;7.578;2024-01-15T01:46:33;22.60;;;9.00;;
77870;SDS011;67067;46.850;7.578;2024-01-15T01:47:35;17.40;;;9.10;;
77870;SDS011;67067;46.850;7.578;2024-01-15T01:48:37;17.23;;;8.57;;
77870;SDS011;67067;46.850;7.578;2024-01-15T01:49:39;10.68;;;5.53;;
77870;SDS011;67067;46.850;7.578;2024-01-15T01:50:42;10.73;;;6.07;;
77870;SDS011;67067;46.850;7.578;2024-01-15T01:51:47;16.48;;;8.65;;
77870;SDS011;67067;46.850;7.578;2024-01-15T01:52:49;16.38;;;7.68;;
77870;SDS011;67067;46.850;7.578;2024-01-15T01:53:54;9.00;;;4.95;;
77870;SDS011;67067;46.850;7.578;2024-01-15T01:54:56;11.80;;;6.20;;
77870;SDS011;67067;46.850;7.578;2024-01-15T01:55:58;16.35;;;8.15;;
77870;SDS011;67067;46.850;7.578;2024-01-15T01:57:00;14.98;;;7.97;;
77870;SDS011;67067;46.850;7.578;2024-01-15T01:58:05;14.48;;;7.53;;
77870;SDS011;67067;46.850;7.578;2024-01-15T01:59:09;9.70;;;5.45;;
77870;SDS011;67067;46.850;7.578;2024-01-15T02:13:31;3.65;;;2.83;;
77870;SDS011;67067;46.850;7.578;2024-01-15T02:14:33;3.53;;;3.20;;
77870;SDS011;67067;46.850;7.578;2024-01-15T02:16:37;7.97;;;3.58;;
77870;SDS011;67067;46.850;7.578;2024-01-15T02:19:03;4.47;;;3.10;;
77870;SDS011;67067;46.850;7.578;2024-01-15T02:20:05;6.90;;;4.20;;
77870;SDS011;67067;46.850;7.578;2024-01-15T02:21:10;6.05;;;3.55;;
77870;SDS011;67067;46.850;7.578;2024-01-15T02:22:12;4.95;;;3.25;;
77870;SDS011;67067;46.850;7.578;2024-01-15T02:23:14;5.97;;;3.22;;
77870;SDS011;67067;46.850;7.578;2024-01-15T02:24:17;9.57;;;3.25;;
77870;SDS011;67067;46.850;7.578;2024-01-15T02:25:21;3.75;;;2.85;;
77870;SDS011;67067;46.850;7.578;2024-01-15T02:27:24;2.75;;;2.42;;
77870;SDS011;67067;46.850;7.578;2024-01-15T02:28:26;4.15;;;2.90;;
77870;SDS011;67067;46.850;7.578;2024-01-15T02:29:30;2.90;;;2.30;;
77870;SDS011;67067;46.850;7.578;2024-01-15T02:30:32;4.55;;;2.47;;
77870;SDS011;67067;46.850;7.578;2024-01-15T02:31:39;3.25;;;2.25;;
77870;SDS011;67067;46.850;7.578;2024-01-15T02:32:41;3.70;;;2.53;;
77870;SDS011;67067;46.850;7.578;2024-01-15T02:33:45;3.28;;;2.60;;
77870;SDS011;67067;46.850;7.578;2024-01-15T02:34:50;3.65;;;2.70;;
77870;SDS011;67067;46.850;7.578;2024-01-15T02:35:54;2.25;;;2.05;;
77870;SDS011;67067;46.850;7.578;2024-01-15T02:36:56;3.58;;;2.80;;
77870;SDS011;67067;46.850;7.578;2024-01-15T02:38:00;2.92;;;2.50;;
77870;SDS011;67067;46.850;7.578;2024-01-15T02:40:03;5.85;;;2.60;;
77870;SDS011;67067;46.850;7.578;2024-01-15T02:41:05;3.47;;;2.40;;
77870;SDS011;67067;46.850;7.578;2024-01-15T02:43:09;4.45;;;2.28;;
77870;SDS011;67067;46.850;7.578;2024-01-15T02:45:12;3.83;;;2.42;;
77870;SDS011;67067;46.850;7.578;2024-01-15T02:46:14;2.83;;;2.47;;
77870;SDS011;67067;46.850;7.578;2024-01-15T02:47:17;2.22;;;2.00;;
77870;SDS011;67067;46.850;7.578;2024-01-15T02:49:23;5.53;;;2.15;;
77870;SDS011;67067;46.850;7.578;2024-01-15T02:51:28;2.95;;;2.25;;
77870;SDS011;67067;46.850;7.578;2024-01-15T02:52:30;2.80;;;2.33;;
77870;SDS011;67067;46.850;7.578;2024-01-15T02:53:32;4.57;;;2.55;;
77870;SDS011;67067;46.850;7.578;2024-01-15T02:55:35;3.95;;;2.70;;
77870;SDS011;67067;46.850;7.578;2024-01-15T02:57:38;2.78;;;2.15;;
77870;SDS011;67067;46.850;7.578;2024-01-15T02:58:40;3.80;;;2.20;;
77870;SDS011;67067;46.850;7.578;2024-01-15T03:00:44;4.60;;;2.30;;
77870;SDS011;67067;46.850;7.578;2024-01-15T03:01:45;3.33;;;2.40;;
77870;SDS011;67067;46.850;7.578;2024-01-15T03:03:49;3.28;;;2.20;;
77870;SDS011;67067;46.850;7.578;2024-01-15T03:04:53;3.47;;;2.25;;
77870;SDS011;67067;46.850;7.578;2024-01-15T03:07:01;3.60;;;1.95;;
77870;SDS011;67067;46.850;7.578;2024-01-15T03:08:03;2.40;;;2.20;;
77870;SDS011;67067;46.850;7.578;2024-01-15T03:09:07;2.58;;;2.10;;
77870;SDS011;67067;46.850;7.578;2024-01-15T03:11:10;2.92;;;2.42;;
77870;SDS011;67067;46.850;7.578;2024-01-15T03:13:14;3.22;;;2.55;;
77870;SDS011;67067;46.850;7.578;2024-01-15T03:15:17;4.53;;;2.28;;
77870;SDS011;67067;46.850;7.578;2024-01-15T03:16:20;2.10;;;1.90;;
77870;SDS011;67067;46.850;7.578;2024-01-15T03:17:22;2.45;;;2.20;;
77870;SDS011;67067;46.850;7.578;2024-01-15T03:19:26;2.83;;;2.53;;
77870;SDS011;67067;46.850;7.578;2024-01-15T03:20:28;3.63;;;2.67;;
77870;SDS011;67067;46.850;7.578;2024-01-15T03:21:32;3.95;;;2.33;;
77870;SDS011;67067;46.850;7.578;2024-01-15T03:23:36;2.08;;;1.88;;
77870;SDS011;67067;46.850;7.578;2024-01-15T03:24:37;6.68;;;2.60;;
77870;SDS011;67067;46.850;7.578;2024-01-15T03:26:41;2.43;;;2.20;;
77870;SDS011;67067;46.850;7.578;2024-01-15T03:27:42;2.40;;;2.20;;
77870;SDS011;67067;46.850;7.578;2024-01-15T03:29:48;2.28;;;2.08;;
77870;SDS011;67067;46.850;7.578;2024-01-15T03:31:52;2.58;;;2.38;;
77870;SDS011;67067;46.850;7.578;2024-01-15T03:32:54;3.60;;;2.55;;
77870;SDS011;67067;46.850;7.578;2024-01-15T03:33:58;4.88;;;2.60;;
77870;SDS011;67067;46.850;7.578;2024-01-15T03:35:00;3.10;;;2.50;;
77870;SDS011;67067;46.850;7.578;2024-01-15T03:36:02;3.78;;;2.30;;
77870;SDS011;67067;46.850;7.578;2024-01-15T03:37:04;3.55;;;2.55;;
77870;SDS011;67067;46.850;7.578;2024-01-15T03:38:06;5.32;;;3.25;;
77870;SDS011;67067;46.850;7.578;2024-01-15T03:40:09;4.93;;;3.15;;
77870;SDS011;67067;46.850;7.578;2024-01-15T03:41:12;5.93;;;3.00;;
77870;SDS011;67067;46.850;7.578;2024-01-15T03:42:14;4.05;;;2.80;;
77870;SDS011;67067;46.850;7.578;2024-01-15T03:43:16;3.42;;;2.67;;
77870;SDS011;67067;46.850;7.578;2024-01-15T03:45:19;5.10;;;2.58;;
77870;SDS011;67067;46.850;7.578;2024-01-15T03:47:22;4.10;;;2.87;;
77870;SDS011;67067;46.850;7.578;2024-01-15T03:48:24;3.92;;;2.92;;
77870;SDS011;67067;46.850;7.578;2024-01-15T03:49:28;5.28;;;3.05;;
77870;SDS011;67067;46.850;7.578;2024-01-15T03:50:33;6.03;;;2.85;;
77870;SDS011;67067;46.850;7.578;2024-01-15T03:51:35;4.10;;;2.72;;
77870;SDS011;67067;46.850;7.578;2024-01-15T03:52:36;4.00;;;2.67;;
77870;SDS011;67067;46.850;7.578;2024-01-15T03:53:39;5.72;;;3.40;;
77870;SDS011;67067;46.850;7.578;2024-01-15T03:55:42;4.18;;;2.83;;
77870;SDS011;67067;46.850;7.578;2024-01-15T03:57:48;3.05;;;2.38;;
77870;SDS011;67067;46.850;7.578;2024-01-15T03:58:50;3.00;;;2.58;;
77870;SDS011;67067;46.850;7.578;2024-01-15T04:00:56;6.60;;;2.97;;
77870;SDS011;67067;46.850;7.578;2024-01-15T04:02:00;3.75;;;2.75;;
77870;SDS011;67067;46.850;7.578;2024-01-15T04:03:04;5.40;;;2.75;;
77870;SDS011;67067;46.850;7.578;2024-01-15T04:04:06;3.80;;;2.80;;
77870;SDS011;67067;46.850;7.578;2024-01-15T04:05:10;2.78;;;2.50;;
77870;SDS011;67067;46.850;7.578;2024-01-15T04:06:14;4.53;;;2.95;;
77870;SDS011;67067;46.850;7.578;2024-01-15T04:07:16;4.18;;;2.80;;
77870;SDS011;67067;46.850;7.578;2024-01-15T04:08:18;3.60;;;2.80;;
77870;SDS011;67067;46.850;7.578;2024-01-15T04:10:21;3.03;;;2.60;;
77870;SDS011;67067;46.850;7.578;2024-01-15T04:12:24;5.82;;;3.03;;
77870;SDS011;67067;46.850;7.578;2024-01-15T04:13:26;3.25;;;2.72;;
77870;SDS011;67067;46.850;7.578;2024-01-15T04:14:28;7.40;;;3.20;;
77870;SDS011;67067;46.850;7.578;2024-01-15T04:16:32;3.90;;;2.95;;
77870;SDS011;67067;46.850;7.578;2024-01-15T04:18:35;3.10;;;2.67;;
77870;SDS011;67067;46.850;7.578;2024-01-15T04:19:37;4.45;;;3.10;;
77870;SDS011;67067;46.850;7.578;2024-01-15T04:20:45;4.82;;;2.92;;
77870;SDS011;67067;46.850;7.578;2024-01-15T04:22:48;4.10;;;3.13;;
77870;SDS011;67067;46.850;7.578;2024-01-15T04:23:52;4.68;;;3.35;;
77870;SDS011;67067;46.850;7.578;2024-01-15T04:25:56;3.72;;;2.90;;
77870;SDS011;67067;46.850;7.578;2024-01-15T04:26:58;2.95;;;2.55;;
77870;SDS011;67067;46.850;7.578;2024-01-15T04:28:00;3.63;;;3.00;;
77870;SDS011;67067;46.850;7.578;2024-01-15T04:30:05;5.05;;;2.70;;
77870;SDS011;67067;46.850;7.578;2024-01-15T04:31:19;3.25;;;2.95;;
77870;SDS011;67067;46.850;7.578;2024-01-15T04:32:22;4.10;;;3.05;;
77870;SDS011;67067;46.850;7.578;2024-01-15T04:34:26;5.55;;;2.63;;
77870;SDS011;67067;46.850;7.578;2024-01-15T04:35:28;3.30;;;2.60;;
77870;SDS011;67067;46.850;7.578;2024-01-15T04:36:38;5.03;;;2.75;;
77870;SDS011;67067;46.850;7.578;2024-01-15T04:37:40;3.17;;;2.80;;
77870;SDS011;67067;46.850;7.578;2024-01-15T04:39:43;3.75;;;2.60;;
77870;SDS011;67067;46.850;7.578;2024-01-15T04:40:45;4.53;;;3.10;;
77870;SDS011;67067;46.850;7.578;2024-01-15T04:42:48;4.13;;;2.95;;
77870;SDS011;67067;46.850;7.578;2024-01-15T04:43:50;6.15;;;2.92;;
77870;SDS011;67067;46.850;7.578;2024-01-15T04:44:54;4.35;;;3.28;;
77870;SDS011;67067;46.850;7.578;2024-01-15T04:47:00;3.40;;;2.78;;
77870;SDS011;67067;46.850;7.578;2024-01-15T04:48:02;4.25;;;2.88;;
77870;SDS011;67067;46.850;7.578;2024-01-15T04:49:09;6.60;;;3.03;;
77870;SDS011;67067;46.850;7.578;2024-01-15T04:50:13;4.55;;;2.70;;
77870;SDS011;67067;46.850;7.578;2024-01-15T04:51:17;3.45;;;2.50;;
77870;SDS011;67067;46.850;7.578;2024-01-15T04:52:19;4.45;;;3.10;;
77870;SDS011;67067;46.850;7.578;2024-01-15T04:54:23;4.87;;;3.10;;
77870;SDS011;67067;46.850;7.578;2024-01-15T04:56:26;3.15;;;2.85;;
77870;SDS011;67067;46.850;7.578;2024-01-15T04:57:28;5.78;;;2.63;;
77870;SDS011;67067;46.850;7.578;2024-01-15T04:58:33;3.22;;;2.75;;
77870;SDS011;67067;46.850;7.578;2024-01-15T04:59:34;3.55;;;3.25;;
77870;SDS011;67067;46.850;7.578;2024-01-15T05:02:10;3.63;;;2.88;;
77870;SDS011;67067;46.850;7.578;2024-01-15T05:04:13;4.73;;;3.03;;
77870;SDS011;67067;46.850;7.578;2024-01-15T05:05:15;3.67;;;3.03;;
77870;SDS011;67067;46.850;7.578;2024-01-15T05:07:18;4.18;;;2.70;;
77870;SDS011;67067;46.850;7.578;2024-01-15T05:08:20;2.88;;;2.60;;
77870;SDS011;67067;46.850;7.578;2024-01-15T05:09:22;3.20;;;2.90;;
77870;SDS011;67067;46.850;7.578;2024-01-15T05:10:26;4.70;;;3.03;;
77870;SDS011;67067;46.850;7.578;2024-01-15T05:11:29;4.03;;;3.05;;
77870;SDS011;67067;46.850;7.578;2024-01-15T05:13:34;4.72;;;3.10;;
77870;SDS011;67067;46.850;7.578;2024-01-15T05:14:36;4.30;;;3.08;;
77870;SDS011;67067;46.850;7.578;2024-01-15T05:16:49;3.22;;;2.92;;
77870;SDS011;67067;46.850;7.578;2024-01-15T05:17:51;6.30;;;3.75;;
77870;SDS011;67067;46.850;7.578;2024-01-15T05:18:53;5.80;;;3.50;;
77870;SDS011;67067;46.850;7.578;2024-01-15T05:19:55;6.75;;;3.15;;
77870;SDS011;67067;46.850;7.578;2024-01-15T05:20:57;4.40;;;3.15;;
77870;SDS011;67067;46.850;7.578;2024-01-15T05:21:59;6.63;;;3.30;;
77870;SDS011;67067;46.850;7.578;2024-01-15T05:23:03;8.10;;;3.53;;
77870;SDS011;67067;46.850;7.578;2024-01-15T05:24:05;4.72;;;3.30;;
77870;SDS011;67067;46.850;7.578;2024-01-15T05:25:07;6.40;;;3.53;;
77870;SDS011;67067;46.850;7.578;2024-01-15T05:26:12;7.03;;;3.60;;
77870;SDS011;67067;46.850;7.578;2024-01-15T05:28:18;5.82;;;3.42;;
77870;SDS011;67067;46.850;7.578;2024-01-15T05:29:19;6.13;;;3.50;;
77870;SDS011;67067;46.850;7.578;2024-01-15T05:30:21;7.60;;;4.18;;
77870;SDS011;67067;46.850;7.578;2024-01-15T05:31:26;5.72;;;3.75;;
77870;SDS011;67067;46.850;7.578;2024-01-15T05:32:28;4.78;;;3.30;;
77870;SDS011;67067;46.850;7.578;2024-01-15T05:33:30;6.20;;;3.65;;
77870;SDS011;67067;46.850;7.578;2024-01-15T05:34:32;5.95;;;3.20;;
77870;SDS011;67067;46.850;7.578;2024-01-15T05:35:34;7.82;;;3.97;;
77870;SDS011;67067;46.850;7.578;2024-01-15T05:37:40;5.60;;;3.45;;
77870;SDS011;67067;46.850;7.578;2024-01-15T05:38:48;4.57;;;3.50;;
77870;SDS011;67067;46.850;7.578;2024-01-15T05:39:51;5.90;;;3.50;;
77870;SDS011;67067;46.850;7.578;2024-01-15T05:40:55;5.97;;;3.58;;
77870;SDS011;67067;46.850;7.578;2024-01-15T05:41:58;4.30;;;3.40;;
77870;SDS011;67067;46.850;7.578;2024-01-15T05:42:59;5.55;;;3.53;;
77870;SDS011;67067;46.850;7.578;2024-01-15T05:44:01;11.20;;;4.20;;
77870;SDS011;67067;46.850;7.578;2024-01-15T05:45:03;6.25;;;3.90;;
77870;SDS011;67067;46.850;7.578;2024-01-15T05:46:06;7.25;;;3.83;;
77870;SDS011;67067;46.850;7.578;2024-01-15T05:47:08;8.05;;;3.60;;
77870;SDS011;67067;46.850;7.578;2024-01-15T05:49:11;6.32;;;3.63;;
77870;SDS011;67067;46.850;7.578;2024-01-15T05:50:13;4.40;;;3.60;;
77870;SDS011;67067;46.850;7.578;2024-01-15T05:52:20;8.35;;;3.97;;
77870;SDS011;67067;46.850;7.578;2024-01-15T05:53:24;7.68;;;3.95;;
77870;SDS011;67067;46.850;7.578;2024-01-15T05:55:27;8.80;;;4.60;;
77870;SDS011;67067;46.850;7.578;2024-01-15T05:56:29;11.50;;;5.75;;
77870;SDS011;67067;46.850;7.578;2024-01-15T05:58:33;13.98;;;5.03;;
77870;SDS011;67067;46.850;7.578;2024-01-15T06:00:37;10.52;;;4.85;;
77870;SDS011;67067;46.850;7.578;2024-01-15T06:01:41;10.23;;;5.20;;
77870;SDS011;67067;46.850;7.578;2024-01-15T06:02:45;11.45;;;5.47;;
77870;SDS011;67067;46.850;7.578;2024-01-15T06:03:49;12.45;;;5.47;;
77870;SDS011;67067;46.850;7.578;2024-01-15T06:04:51;11.15;;;5.82;;
77870;SDS011;67067;46.850;7.578;2024-01-15T06:05:53;11.05;;;5.95;;
77870;SDS011;67067;46.850;7.578;2024-01-15T06:07:59;9.82;;;5.10;;
77870;SDS011;67067;46.850;7.578;2024-01-15T06:10:06;7.40;;;4.30;;
77870;SDS011;67067;46.850;7.578;2024-01-15T06:11:11;9.75;;;4.10;;
77870;SDS011;67067;46.850;7.578;2024-01-15T06:13:16;8.27;;;4.17;;
77870;SDS011;67067;46.850;7.578;2024-01-15T06:14:18;9.07;;;4.50;;
77870;SDS011;67067;46.850;7.578;2024-01-15T06:16:21;6.25;;;3.92;;
77870;SDS011;67067;46.850;7.578;2024-01-15T06:17:24;7.28;;;3.83;;
77870;SDS011;67067;46.850;7.578;2024-01-15T06:18:26;9.20;;;3.85;;
77870;SDS011;67067;46.850;7.578;2024-01-15T06:19:28;8.15;;;4.50;;
77870;SDS011;67067;46.850;7.578;2024-01-15T06:20:30;10.80;;;4.78;;
77870;SDS011;67067;46.850;7.578;2024-01-15T06:22:33;8.70;;;4.37;;
77870;SDS011;67067;46.850;7.578;2024-01-15T06:23:36;7.15;;;4.32;;
77870;SDS011;67067;46.850;7.578;2024-01-15T06:24:41;8.40;;;4.03;;
77870;SDS011;67067;46.850;7.578;2024-01-15T06:25:42;6.28;;;3.60;;
77870;SDS011;67067;46.850;7.578;2024-01-15T06:26:47;7.63;;;4.00;;
77870;SDS011;67067;46.850;7.578;2024-01-15T06:27:49;7.70;;;3.90;;
77870;SDS011;67067;46.850;7.578;2024-01-15T06:29:52;7.30;;;3.80;;
77870;SDS011;67067;46.850;7.578;2024-01-15T06:30:54;7.45;;;4.45;;
77870;SDS011;67067;46.850;7.578;2024-01-15T06:31:56;8.18;;;4.70;;
77870;SDS011;67067;46.850;7.578;2024-01-15T06:33:01;7.20;;;4.10;;
77870;SDS011;67067;46.850;7.578;2024-01-15T06:34:03;7.70;;;4.50;;
77870;SDS011;67067;46.850;7.578;2024-01-15T06:35:05;8.88;;;4.60;;
77870;SDS011;67067;46.850;7.578;2024-01-15T06:36:07;8.75;;;5.00;;
77870;SDS011;67067;46.850;7.578;2024-01-15T06:37:09;11.23;;;5.38;;
77870;SDS011;67067;46.850;7.578;2024-01-15T06:39:12;8.88;;;4.95;;
77870;SDS011;67067;46.850;7.578;2024-01-15T06:40:17;9.50;;;4.70;;
77870;SDS011;67067;46.850;7.578;2024-01-15T06:42:24;12.40;;;5.18;;
77870;SDS011;67067;46.850;7.578;2024-01-15T06:43:26;10.90;;;4.90;;
77870;SDS011;67067;46.850;7.578;2024-01-15T06:45:29;8.73;;;4.57;;
77870;SDS011;67067;46.850;7.578;2024-01-15T06:46:31;9.13;;;4.40;;
77870;SDS011;67067;46.850;7.578;2024-01-15T06:47:36;8.88;;;4.90;;
77870;SDS011;67067;46.850;7.578;2024-01-15T06:49:41;8.68;;;4.00;;
77870;SDS011;67067;46.850;7.578;2024-01-15T06:50:43;5.75;;;3.58;;
77870;SDS011;67067;46.850;7.578;2024-01-15T06:51:45;6.65;;;3.30;;
77870;SDS011;67067;46.850;7.578;2024-01-15T06:52:50;7.18;;;3.58;;
77870;SDS011;67067;46.850;7.578;2024-01-15T06:54:53;5.82;;;3.30;;
77870;SDS011;67067;46.850;7.578;2024-01-15T06:55:57;8.82;;;4.80;;
77870;SDS011;67067;46.850;7.578;2024-01-15T06:58:03;4.72;;;2.60;;
77870;SDS011;67067;46.850;7.578;2024-01-15T06:59:05;2.65;;;2.45;;
77870;SDS011;67067;46.850;7.578;2024-01-15T07:00:09;4.25;;;2.78;;
77870;SDS011;67067;46.850;7.578;2024-01-15T07:01:11;4.05;;;2.80;;
77870;SDS011;67067;46.850;7.578;2024-01-15T07:02:16;4.22;;;3.15;;
77870;SDS011;67067;46.850;7.578;2024-01-15T07:03:18;4.78;;;2.70;;
77870;SDS011;67067;46.850;7.578;2024-01-15T07:04:19;4.32;;;3.03;;
77870;SDS011;67067;46.850;7.578;2024-01-15T07:05:21;4.72;;;3.42;;
77870;SDS011;67067;46.850;7.578;2024-01-15T07:06:23;3.72;;;2.45;;
77870;SDS011;67067;46.850;7.578;2024-01-15T07:07:25;3.67;;;2.35;;
77870;SDS011;67067;46.850;7.578;2024-01-15T07:08:30;2.75;;;2.42;;
77870;SDS011;67067;46.850;7.578;2024-01-15T07:09:32;4.72;;;2.35;;
77870;SDS011;67067;46.850;7.578;2024-01-15T07:10:36;3.20;;;2.58;;
77870;SDS011;67067;46.850;7.578;2024-01-15T07:11:38;3.08;;;1.98;;
77870;SDS011;67067;46.850;7.578;2024-01-15T07:13:45;5.53;;;2.55;;
77870;SDS011;67067;46.850;7.578;2024-01-15T07:15:48;3.13;;;2.50;;
77870;SDS011;67067;46.850;7.578;2024-01-15T07:16:50;3.40;;;2.35;;
77870;SDS011;67067;46.850;7.578;2024-01-15T07:18:54;2.45;;;2.05;;
77870;SDS011;67067;46.850;7.578;2024-01-15T07:19:56;5.93;;;3.60;;
77870;SDS011;67067;46.850;7.578;2024-01-15T07:21:00;10.25;;;4.65;;
77870;SDS011;67067;46.850;7.578;2024-01-15T07:22:06;2.85;;;2.53;;
77870;SDS011;67067;46.850;7.578;2024-01-15T07:23:08;3.65;;;2.80;;
77870;SDS011;67067;46.850;7.578;2024-01-15T07:24:09;3.20;;;2.65;;
77870;SDS011;67067;46.850;7.578;2024-01-15T07:25:12;4.63;;;2.83;;
77870;SDS011;67067;46.850;7.578;2024-01-15T07:26:14;5.10;;;3.40;;
77870;SDS011;67067;46.850;7.578;2024-01-15T07:28:19;2.55;;;2.35;;
77870;SDS011;67067;46.850;7.578;2024-01-15T07:29:21;2.28;;;2.03;;
77870;SDS011;67067;46.850;7.578;2024-01-15T07:31:25;4.90;;;2.38;;
77870;SDS011;67067;46.850;7.578;2024-01-15T07:32:28;2.88;;;2.45;;
77870;SDS011;67067;46.850;7.578;2024-01-15T07:33:32;2.92;;;2.72;;
77870;SDS011;67067;46.850;7.578;2024-01-15T07:34:37;2.90;;;2.38;;
77870;SDS011;67067;46.850;7.578;2024-01-15T07:35:39;5.10;;;2.78;;
77870;SDS011;67067;46.850;7.578;2024-01-15T07:36:45;2.42;;;2.22;;
77870;SDS011;67067;46.850;7.578;2024-01-15T07:37:50;4.38;;;2.90;;
77870;SDS011;67067;46.850;7.578;2024-01-15T07:39:53;4.90;;;2.43;;
77870;SDS011;67067;46.850;7.578;2024-01-15T07:40:55;2.97;;;2.17;;
77870;SDS011;67067;46.850;7.578;2024-01-15T07:41:59;7.10;;;3.10;;
77870;SDS011;67067;46.850;7.578;2024-01-15T07:43:03;4.20;;;2.83;;
77870;SDS011;67067;46.850;7.578;2024-01-15T07:44:05;4.00;;;3.13;;
77870;SDS011;67067;46.850;7.578;2024-01-15T07:45:07;3.65;;;2.95;;
77870;SDS011;67067;46.850;7.578;2024-01-15T07:46:09;4.70;;;3.10;;
77870;SDS011;67067;46.850;7.578;2024-01-15T07:47:13;3.90;;;2.80;;
77870;SDS011;67067;46.850;7.578;2024-01-15T07:48:18;3.20;;;2.90;;
77870;SDS011;67067;46.850;7.578;2024-01-15T07:49:19;3.28;;;2.75;;
77870;SDS011;67067;46.850;7.578;2024-01-15T07:50:21;5.60;;;2.70;;
77870;SDS011;67067;46.850;7.578;2024-01-15T07:51:25;3.58;;;2.90;;
77870;SDS011;67067;46.850;7.578;2024-01-15T07:52:28;5.13;;;3.28;;
77870;SDS011;67067;46.850;7.578;2024-01-15T07:54:31;4.93;;;3.10;;
77870;SDS011;67067;46.850;7.578;2024-01-15T07:55:34;4.28;;;3.42;;
77870;SDS011;67067;46.850;7.578;2024-01-15T07:58:06;4.80;;;2.83;;
77870;SDS011;67067;46.850;7.578;2024-01-15T07:59:17;4.65;;;2.90;;
77870;SDS011;67067;46.850;7.578;2024-01-15T08:02:15;6.57;;;3.83;;
77870;SDS011;67067;46.850;7.578;2024-01-15T08:03:17;5.82;;;3.40;;
77870;SDS011;67067;46.850;7.578;2024-01-15T08:05:21;9.68;;;4.85;;
77870;SDS011;67067;46.850;7.578;2024-01-15T08:06:23;5.28;;;3.63;;
77870;SDS011;67067;46.850;7.578;2024-01-15T08:07:25;6.13;;;3.70;;
77870;SDS011;67067;46.850;7.578;2024-01-15T08:08:27;5.30;;;3.30;;
77870;SDS011;67067;46.850;7.578;2024-01-15T08:10:31;9.88;;;5.05;;
77870;SDS011;67067;46.850;7.578;2024-01-15T08:12:34;5.28;;;3.60;;
77870;SDS011;67067;46.850;7.578;2024-01-15T08:14:40;3.20;;;2.90;;
77870;SDS011;67067;46.850;7.578;2024-01-15T08:15:41;3.80;;;3.20;;
77870;SDS011;67067;46.850;7.578;2024-01-15T08:17:45;3.90;;;2.88;;
77870;SDS011;67067;46.850;7.578;2024-01-15T08:18:47;3.30;;;3.00;;
77870;SDS011;67067;46.850;7.578;2024-01-15T08:19:49;3.60;;;3.17;;
77870;SDS011;67067;46.850;7.578;2024-01-15T08:20:51;4.82;;;3.10;;